sensor_id;sensor_type;location;lat;lon;timestamp;P1;durP1;ratioP1;P2;durP2;ratioP2
75012;SDS011;63567;49.956;20.130;2023-11-19T00:02:13;19.80;;;9.10;;
75012;SDS011;63567;49.956;20.130;2023-11-19T00:04:39;18.77;;;8.20;;
75012;SDS011;63567;49.956;20.130;2023-11-19T00:07:04;19.95;;;9.63;;
75012;SDS011;63567;49.956;20.130;2023-11-19T00:09:32;19.48;;;9.02;;
75012;SDS011;63567;49.956;20.130;2023-11-19T00:11:57;21.05;;;9.05;;
75012;SDS011;63567;49.956;20.130;2023-11-19T00:14:25;19.35;;;9.15;;
75012;SDS011;63567;49.956;20.130;2023-11-19T00:16:50;23.65;;;11.18;;
75012;SDS011;63567;49.956;20.130;2023-11-19T00:19:16;24.23;;;10.35;;
75012;SDS011;63567;49.956;20.130;2023-11-19T00:21:41;22.27;;;11.35;;
75012;SDS011;63567;49.956;20.130;2023-11-19T00:24:07;20.00;;;10.18;;
75012;SDS011;63567;49.956;20.130;2023-11-19T00:26:33;24.35;;;10.93;;
75012;SDS011;63567;49.956;20.130;2023-11-19T00:28:58;23.42;;;10.80;;
75012;SDS011;63567;49.956;20.130;2023-11-19T00:31:24;20.63;;;9.90;;
75012;SDS011;63567;49.956;20.130;2023-11-19T00:33:51;22.38;;;9.95;;
75012;SDS011;63567;49.956;20.130;2023-11-19T00:36:16;21.00;;;9.43;;
75012;SDS011;63567;49.956;20.130;2023-11-19T00:38:42;22.48;;;10.73;;
75012;SDS011;63567;49.956;20.130;2023-11-19T00:41:07;22.02;;;9.48;;
75012;SDS011;63567;49.956;20.130;2023-11-19T00:43:32;20.17;;;9.33;;
75012;SDS011;63567;49.956;20.130;2023-11-19T00:45:58;20.15;;;9.10;;
75012;SDS011;63567;49.956;20.130;2023-11-19T00:48:23;19.80;;;9.52;;
75012;SDS011;63567;49.956;20.130;2023-11-19T00:50:49;19.33;;;9.07;;
75012;SDS011;63567;49.956;20.130;2023-11-19T00:53:14;20.57;;;9.60;;
75012;SDS011;63567;49.956;20.130;2023-11-19T00:55:39;21.55;;;8.93;;
75012;SDS011;63567;49.956;20.130;2023-11-19T00:58:05;22.07;;;9.90;;
75012;SDS011;63567;49.956;20.130;2023-11-19T01:00:30;20.73;;;9.10;;
75012;SDS011;63567;49.956;20.130;2023-11-19T01:02:57;21.45;;;9.25;;
75012;SDS011;63567;49.956;20.130;2023-11-19T01:05:23;20.80;;;9.13;;
75012;SDS011;63567;49.956;20.130;2023-11-19T01:07:48;19.07;;;8.93;;
75012;SDS011;63567;49.956;20.130;2023-11-19T01:10:14;22.30;;;9.77;;
75012;SDS011;63567;49.956;20.130;2023-11-19T01:12:41;19.02;;;9.05;;
75012;SDS011;63567;49.956;20.130;2023-11-19T01:15:07;22.20;;;9.80;;
75012;SDS011;63567;49.956;20.130;2023-11-19T01:17:32;24.35;;;10.25;;
75012;SDS011;63567;49.956;20.130;2023-11-19T01:19:58;22.43;;;10.67;;
75012;SDS011;63567;49.956;20.130;2023-11-19T01:22:23;24.17;;;11.52;;
75012;SDS011;63567;49.956;20.130;2023-11-19T01:24:49;21.53;;;10.17;;
75012;SDS011;63567;49.956;20.130;2023-11-19T01:27:14;25.08;;;10.90;;
75012;SDS011;63567;49.956;20.130;2023-11-19T01:29:40;20.77;;;9.67;;
75012;SDS011;63567;49.956;20.130;2023-11-19T01:32:05;23.35;;;10.50;;
75012;SDS011;63567;49.956;20.130;2023-11-19T01:34:31;23.63;;;10.45;;
75012;SDS011;63567;49.956;20.130;2023-11-19T01:36:56;21.87;;;10.03;;
75012;SDS011;63567;49.956;20.130;2023-11-19T01:39:21;19.80;;;9.13;;
75012;SDS011;63567;49.956;20.130;2023-11-19T01:41:47;22.70;;;10.75;;
75012;SDS011;63567;49.956;20.130;2023-11-19T01:44:12;22.27;;;9.50;;
75012;SDS011;63567;49.956;20.130;2023-11-19T01:46:38;22.30;;;10.32;;
75012;SDS011;63567;49.956;20.130;2023-11-19T01:49:06;24.65;;;10.73;;
75012;SDS011;63567;49.956;20.130;2023-11-19T01:51:32;22.65;;;10.60;;
75012;SDS011;63567;49.956;20.130;2023-11-19T01:53:57;21.02;;;10.10;;
75012;SDS011;63567;49.956;20.130;2023-11-19T01:56:23;20.20;;;9.75;;
75012;SDS011;63567;49.956;20.130;2023-11-19T01:58:50;21.38;;;9.85;;
75012;SDS011;63567;49.956;20.130;2023-11-19T02:01:16;21.50;;;9.02;;
75012;SDS011;63567;49.956;20.130;2023-11-19T02:03:42;21.88;;;9.25;;
75012;SDS011;63567;49.956;20.130;2023-11-19T02:06:07;21.35;;;9.43;;
75012;SDS011;63567;49.956;20.130;2023-11-19T02:08:35;23.23;;;9.52;;
75012;SDS011;63567;49.956;20.130;2023-11-19T02:11:01;19.15;;;8.82;;
75012;SDS011;63567;49.956;20.130;2023-11-19T02:13:27;18.27;;;8.80;;
75012;SDS011;63567;49.956;20.130;2023-11-19T02:15:53;21.38;;;8.77;;
75012;SDS011;63567;49.956;20.130;2023-11-19T02:20:49;19.50;;;9.25;;
75012;SDS011;63567;49.956;20.130;2023-11-19T02:23:15;22.77;;;9.77;;
75012;SDS011;63567;49.956;20.130;2023-11-19T02:25:41;21.98;;;9.32;;
75012;SDS011;63567;49.956;20.130;2023-11-19T02:28:07;22.73;;;9.68;;
75012;SDS011;63567;49.956;20.130;2023-11-19T02:30:33;22.75;;;9.93;;
75012;SDS011;63567;49.956;20.130;2023-11-19T02:32:58;19.33;;;9.70;;
75012;SDS011;63567;49.956;20.130;2023-11-19T02:35:26;23.73;;;10.48;;
75012;SDS011;63567;49.956;20.130;2023-11-19T02:37:52;20.85;;;9.68;;
75012;SDS011;63567;49.956;20.130;2023-11-19T02:40:19;21.35;;;10.10;;
75012;SDS011;63567;49.956;20.130;2023-11-19T02:42:44;21.57;;;10.30;;
75012;SDS011;63567;49.956;20.130;2023-11-19T02:45:09;19.47;;;8.77;;
75012;SDS011;63567;49.956;20.130;2023-11-19T02:47:39;19.42;;;9.27;;
75012;SDS011;63567;49.956;20.130;2023-11-19T02:50:09;23.67;;;10.07;;
75012;SDS011;63567;49.956;20.130;2023-11-19T02:55:08;22.20;;;9.38;;
75012;SDS011;63567;49.956;20.130;2023-11-19T02:57:39;23.38;;;9.73;;
75012;SDS011;63567;49.956;20.130;2023-11-19T03:00:15;23.90;;;9.93;;
75012;SDS011;63567;49.956;20.130;2023-11-19T03:02:41;19.63;;;8.70;;
75012;SDS011;63567;49.956;20.130;2023-11-19T03:05:11;22.67;;;10.18;;
75012;SDS011;63567;49.956;20.130;2023-11-19T03:07:39;19.92;;;9.40;;
75012;SDS011;63567;49.956;20.130;2023-11-19T03:10:05;22.45;;;9.43;;
75012;SDS011;63567;49.956;20.130;2023-11-19T03:12:31;22.30;;;9.85;;
75012;SDS011;63567;49.956;20.130;2023-11-19T03:14:57;22.08;;;9.25;;
75012;SDS011;63567;49.956;20.130;2023-11-19T03:17:22;21.43;;;9.13;;
75012;SDS011;63567;49.956;20.130;2023-11-19T03:19:49;22.65;;;9.25;;
75012;SDS011;63567;49.956;20.130;2023-11-19T03:22:14;22.88;;;10.43;;
75012;SDS011;63567;49.956;20.130;2023-11-19T03:24:40;21.80;;;9.98;;
75012;SDS011;63567;49.956;20.130;2023-11-19T03:27:05;21.00;;;10.47;;
75012;SDS011;63567;49.956;20.130;2023-11-19T03:29:30;23.47;;;10.83;;
75012;SDS011;63567;49.956;20.130;2023-11-19T03:31:55;24.93;;;10.97;;
75012;SDS011;63567;49.956;20.130;2023-11-19T03:34:21;25.07;;;11.13;;
75012;SDS011;63567;49.956;20.130;2023-11-19T03:36:46;24.02;;;10.63;;
75012;SDS011;63567;49.956;20.130;2023-11-19T03:39:12;24.17;;;10.77;;
75012;SDS011;63567;49.956;20.130;2023-11-19T03:41:37;24.33;;;11.40;;
75012;SDS011;63567;49.956;20.130;2023-11-19T03:44:02;23.87;;;11.23;;
75012;SDS011;63567;49.956;20.130;2023-11-19T03:46:28;24.45;;;11.90;;
75012;SDS011;63567;49.956;20.130;2023-11-19T03:48:55;27.13;;;12.13;;
75012;SDS011;63567;49.956;20.130;2023-11-19T03:51:20;28.23;;;12.67;;
75012;SDS011;63567;49.956;20.130;2023-11-19T03:53:45;27.37;;;12.37;;
75012;SDS011;63567;49.956;20.130;2023-11-19T03:56:11;27.92;;;12.30;;
75012;SDS011;63567;49.956;20.130;2023-11-19T03:58:37;24.80;;;10.77;;
75012;SDS011;63567;49.956;20.130;2023-11-19T04:01:06;28.65;;;12.40;;
75012;SDS011;63567;49.956;20.130;2023-11-19T04:03:37;26.80;;;11.75;;
75012;SDS011;63567;49.956;20.130;2023-11-19T04:06:03;25.03;;;11.60;;
75012;SDS011;63567;49.956;20.130;2023-11-19T04:08:29;27.20;;;11.48;;
75012;SDS011;63567;49.956;20.130;2023-11-19T04:10:54;28.57;;;12.43;;
75012;SDS011;63567;49.956;20.130;2023-11-19T04:13:19;24.40;;;11.27;;
75012;SDS011;63567;49.956;20.130;2023-11-19T04:15:45;27.33;;;11.33;;
75012;SDS011;63567;49.956;20.130;2023-11-19T04:18:10;24.92;;;10.73;;
75012;SDS011;63567;49.956;20.130;2023-11-19T04:20:35;22.43;;;11.20;;
75012;SDS011;63567;49.956;20.130;2023-11-19T04:23:01;24.45;;;11.35;;
75012;SDS011;63567;49.956;20.130;2023-11-19T04:25:27;23.90;;;10.73;;
75012;SDS011;63567;49.956;20.130;2023-11-19T04:27:52;26.10;;;11.80;;
75012;SDS011;63567;49.956;20.130;2023-11-19T04:30:18;27.73;;;11.63;;
75012;SDS011;63567;49.956;20.130;2023-11-19T04:32:44;28.00;;;11.35;;
75012;SDS011;63567;49.956;20.130;2023-11-19T04:35:09;24.50;;;11.50;;
75012;SDS011;63567;49.956;20.130;2023-11-19T04:37:35;23.50;;;10.75;;
75012;SDS011;63567;49.956;20.130;2023-11-19T04:40:01;23.48;;;11.52;;
75012;SDS011;63567;49.956;20.130;2023-11-19T04:42:26;25.17;;;11.48;;
75012;SDS011;63567;49.956;20.130;2023-11-19T04:44:52;26.17;;;11.17;;
75012;SDS011;63567;49.956;20.130;2023-11-19T04:47:17;23.60;;;10.95;;
75012;SDS011;63567;49.956;20.130;2023-11-19T04:49:42;26.37;;;12.33;;
75012;SDS011;63567;49.956;20.130;2023-11-19T04:52:08;26.70;;;11.83;;
75012;SDS011;63567;49.956;20.130;2023-11-19T04:54:33;25.75;;;11.02;;
75012;SDS011;63567;49.956;20.130;2023-11-19T04:56:59;28.20;;;11.53;;
75012;SDS011;63567;49.956;20.130;2023-11-19T04:59:24;22.90;;;10.53;;
75012;SDS011;63567;49.956;20.130;2023-11-19T05:01:49;25.47;;;11.43;;
75012;SDS011;63567;49.956;20.130;2023-11-19T05:04:15;25.92;;;10.65;;
75012;SDS011;63567;49.956;20.130;2023-11-19T05:06:43;24.95;;;11.40;;
75012;SDS011;63567;49.956;20.130;2023-11-19T05:09:09;26.33;;;11.47;;
75012;SDS011;63567;49.956;20.130;2023-11-19T05:11:34;24.17;;;10.98;;
75012;SDS011;63567;49.956;20.130;2023-11-19T05:14:01;24.77;;;11.38;;
75012;SDS011;63567;49.956;20.130;2023-11-19T05:16:29;25.45;;;10.82;;
75012;SDS011;63567;49.956;20.130;2023-11-19T05:18:54;26.25;;;11.57;;
75012;SDS011;63567;49.956;20.130;2023-11-19T05:21:19;24.43;;;10.23;;
75012;SDS011;63567;49.956;20.130;2023-11-19T05:23:45;24.73;;;10.80;;
75012;SDS011;63567;49.956;20.130;2023-11-19T05:26:18;27.10;;;11.27;;
75012;SDS011;63567;49.956;20.130;2023-11-19T05:28:44;26.70;;;12.38;;
75012;SDS011;63567;49.956;20.130;2023-11-19T05:31:10;24.20;;;11.07;;
75012;SDS011;63567;49.956;20.130;2023-11-19T05:33:35;23.47;;;10.73;;
75012;SDS011;63567;49.956;20.130;2023-11-19T05:36:01;25.27;;;11.40;;
75012;SDS011;63567;49.956;20.130;2023-11-19T05:38:28;26.80;;;11.90;;
75012;SDS011;63567;49.956;20.130;2023-11-19T05:40:54;24.27;;;10.68;;
75012;SDS011;63567;49.956;20.130;2023-11-19T05:43:19;26.27;;;11.77;;
75012;SDS011;63567;49.956;20.130;2023-11-19T05:45:45;25.43;;;10.90;;
75012;SDS011;63567;49.956;20.130;2023-11-19T05:48:10;23.57;;;11.27;;
75012;SDS011;63567;49.956;20.130;2023-11-19T05:50:35;24.10;;;10.60;;
75012;SDS011;63567;49.956;20.130;2023-11-19T05:53:01;23.67;;;11.02;;
75012;SDS011;63567;49.956;20.130;2023-11-19T05:55:26;24.63;;;10.40;;
75012;SDS011;63567;49.956;20.130;2023-11-19T05:57:53;24.33;;;9.75;;
75012;SDS011;63567;49.956;20.130;2023-11-19T06:00:18;18.45;;;9.00;;
75012;SDS011;63567;49.956;20.130;2023-11-19T06:02:43;20.70;;;9.60;;
75012;SDS011;63567;49.956;20.130;2023-11-19T06:05:09;19.67;;;8.27;;
75012;SDS011;63567;49.956;20.130;2023-11-19T06:07:34;19.27;;;9.35;;
75012;SDS011;63567;49.956;20.130;2023-11-19T06:10:01;20.10;;;8.63;;
75012;SDS011;63567;49.956;20.130;2023-11-19T06:12:28;21.92;;;8.90;;
75012;SDS011;63567;49.956;20.130;2023-11-19T06:14:53;20.98;;;8.93;;
75012;SDS011;63567;49.956;20.130;2023-11-19T06:17:18;17.90;;;8.80;;
75012;SDS011;63567;49.956;20.130;2023-11-19T06:19:44;18.93;;;9.00;;
75012;SDS011;63567;49.956;20.130;2023-11-19T06:22:10;21.52;;;8.43;;
75012;SDS011;63567;49.956;20.130;2023-11-19T06:24:36;18.92;;;8.63;;
75012;SDS011;63567;49.956;20.130;2023-11-19T06:27:01;20.48;;;8.90;;
75012;SDS011;63567;49.956;20.130;2023-11-19T06:29:27;18.98;;;8.63;;
75012;SDS011;63567;49.956;20.130;2023-11-19T06:31:53;21.45;;;9.77;;
75012;SDS011;63567;49.956;20.130;2023-11-19T06:34:18;17.70;;;9.17;;
75012;SDS011;63567;49.956;20.130;2023-11-19T06:36:43;19.47;;;9.80;;
75012;SDS011;63567;49.956;20.130;2023-11-19T06:39:09;19.40;;;8.87;;
75012;SDS011;63567;49.956;20.130;2023-11-19T06:41:35;19.67;;;9.73;;
75012;SDS011;63567;49.956;20.130;2023-11-19T06:44:02;18.58;;;8.57;;
75012;SDS011;63567;49.956;20.130;2023-11-19T06:46:29;18.85;;;8.93;;
75012;SDS011;63567;49.956;20.130;2023-11-19T06:48:55;19.83;;;8.50;;
75012;SDS011;63567;49.956;20.130;2023-11-19T06:51:20;21.27;;;9.77;;
75012;SDS011;63567;49.956;20.130;2023-11-19T06:53:46;18.43;;;8.83;;
75012;SDS011;63567;49.956;20.130;2023-11-19T06:56:18;17.20;;;7.77;;
75012;SDS011;63567;49.956;20.130;2023-11-19T06:58:46;17.02;;;8.30;;
75012;SDS011;63567;49.956;20.130;2023-11-19T07:01:12;18.20;;;7.43;;
75012;SDS011;63567;49.956;20.130;2023-11-19T07:03:38;15.23;;;7.72;;
75012;SDS011;63567;49.956;20.130;2023-11-19T07:06:03;16.40;;;7.75;;
75012;SDS011;63567;49.956;20.130;2023-11-19T07:08:30;15.15;;;6.90;;
75012;SDS011;63567;49.956;20.130;2023-11-19T07:10:55;15.45;;;7.22;;
75012;SDS011;63567;49.956;20.130;2023-11-19T07:13:21;16.10;;;7.60;;
75012;SDS011;63567;49.956;20.130;2023-11-19T07:15:46;16.77;;;8.17;;
75012;SDS011;63567;49.956;20.130;2023-11-19T07:18:11;15.50;;;7.03;;
75012;SDS011;63567;49.956;20.130;2023-11-19T07:20:37;14.17;;;7.23;;
75012;SDS011;63567;49.956;20.130;2023-11-19T07:23:03;18.90;;;8.00;;
75012;SDS011;63567;49.956;20.130;2023-11-19T07:25:28;16.65;;;7.55;;
75012;SDS011;63567;49.956;20.130;2023-11-19T07:27:54;14.53;;;7.10;;
75012;SDS011;63567;49.956;20.130;2023-11-19T07:30:19;16.40;;;7.67;;
75012;SDS011;63567;49.956;20.130;2023-11-19T07:32:44;15.97;;;7.67;;
75012;SDS011;63567;49.956;20.130;2023-11-19T07:35:10;15.63;;;7.20;;
75012;SDS011;63567;49.956;20.130;2023-11-19T07:37:35;15.67;;;7.73;;
75012;SDS011;63567;49.956;20.130;2023-11-19T07:40:00;15.30;;;8.73;;
75012;SDS011;63567;49.956;20.130;2023-11-19T07:42:25;18.17;;;10.00;;
75012;SDS011;63567;49.956;20.130;2023-11-19T07:44:51;18.13;;;9.20;;
75012;SDS011;63567;49.956;20.130;2023-11-19T07:47:16;16.90;;;8.17;;
75012;SDS011;63567;49.956;20.130;2023-11-19T07:49:41;18.93;;;7.70;;
75012;SDS011;63567;49.956;20.130;2023-11-19T07:52:08;17.02;;;7.90;;
75012;SDS011;63567;49.956;20.130;2023-11-19T07:54:34;14.18;;;6.90;;
75012;SDS011;63567;49.956;20.130;2023-11-19T07:56:59;13.93;;;6.47;;
75012;SDS011;63567;49.956;20.130;2023-11-19T07:59:25;13.07;;;6.80;;
75012;SDS011;63567;49.956;20.130;2023-11-19T08:01:50;12.73;;;6.07;;
75012;SDS011;63567;49.956;20.130;2023-11-19T08:04:15;12.97;;;6.03;;
75012;SDS011;63567;49.956;20.130;2023-11-19T08:06:41;11.47;;;5.40;;
75012;SDS011;63567;49.956;20.130;2023-11-19T08:09:06;12.67;;;5.97;;
75012;SDS011;63567;49.956;20.130;2023-11-19T08:11:31;16.17;;;7.32;;
75012;SDS011;63567;49.956;20.130;2023-11-19T08:13:57;16.23;;;7.63;;
75012;SDS011;63567;49.956;20.130;2023-11-19T08:16:22;20.17;;;8.30;;
75012;SDS011;63567;49.956;20.130;2023-11-19T08:18:48;22.17;;;7.83;;
75012;SDS011;63567;49.956;20.130;2023-11-19T08:21:13;18.77;;;7.50;;
75012;SDS011;63567;49.956;20.130;2023-11-19T08:23:38;13.18;;;5.90;;
75012;SDS011;63567;49.956;20.130;2023-11-19T08:26:04;12.73;;;5.80;;
75012;SDS011;63567;49.956;20.130;2023-11-19T08:28:30;15.05;;;6.15;;
75012;SDS011;63567;49.956;20.130;2023-11-19T08:30:56;12.80;;;5.97;;
75012;SDS011;63567;49.956;20.130;2023-11-19T08:33:21;12.80;;;5.90;;
75012;SDS011;63567;49.956;20.130;2023-11-19T08:35:47;12.15;;;6.03;;
75012;SDS011;63567;49.956;20.130;2023-11-19T08:38:13;11.52;;;5.30;;
75012;SDS011;63567;49.956;20.130;2023-11-19T08:40:38;10.10;;;5.20;;
75012;SDS011;63567;49.956;20.130;2023-11-19T08:43:04;11.93;;;5.80;;
75012;SDS011;63567;49.956;20.130;2023-11-19T08:45:29;10.57;;;5.47;;
75012;SDS011;63567;49.956;20.130;2023-11-19T08:47:56;13.65;;;5.85;;
75012;SDS011;63567;49.956;20.130;2023-11-19T08:50:22;13.15;;;5.90;;
75012;SDS011;63567;49.956;20.130;2023-11-19T08:52:47;11.27;;;5.50;;
75012;SDS011;63567;49.956;20.130;2023-11-19T08:55:13;11.30;;;5.78;;
75012;SDS011;63567;49.956;20.130;2023-11-19T08:57:38;10.77;;;5.63;;
75012;SDS011;63567;49.956;20.130;2023-11-19T09:00:04;12.30;;;5.68;;
75012;SDS011;63567;49.956;20.130;2023-11-19T09:02:34;11.23;;;5.75;;
75012;SDS011;63567;49.956;20.130;2023-11-19T09:05:00;11.50;;;5.63;;
75012;SDS011;63567;49.956;20.130;2023-11-19T09:07:26;9.70;;;5.10;;
75012;SDS011;63567;49.956;20.130;2023-11-19T09:09:52;11.55;;;5.38;;
75012;SDS011;63567;49.956;20.130;2023-11-19T09:12:17;9.67;;;5.17;;
75012;SDS011;63567;49.956;20.130;2023-11-19T09:14:43;10.73;;;5.50;;
75012;SDS011;63567;49.956;20.130;2023-11-19T09:17:08;10.63;;;5.50;;
75012;SDS011;63567;49.956;20.130;2023-11-19T09:19:34;11.93;;;5.65;;
75012;SDS011;63567;49.956;20.130;2023-11-19T09:22:00;10.73;;;5.60;;
75012;SDS011;63567;49.956;20.130;2023-11-19T09:24:26;9.00;;;5.25;;
75012;SDS011;63567;49.956;20.130;2023-11-19T09:26:51;9.60;;;5.37;;
75012;SDS011;63567;49.956;20.130;2023-11-19T09:29:16;10.30;;;6.10;;
75012;SDS011;63567;49.956;20.130;2023-11-19T09:31:42;9.75;;;5.20;;
75012;SDS011;63567;49.956;20.130;2023-11-19T09:34:07;11.67;;;5.90;;
75012;SDS011;63567;49.956;20.130;2023-11-19T09:36:33;13.13;;;6.78;;
75012;SDS011;63567;49.956;20.130;2023-11-19T09:38:58;14.10;;;6.83;;
75012;SDS011;63567;49.956;20.130;2023-11-19T09:41:25;21.58;;;9.70;;
75012;SDS011;63567;49.956;20.130;2023-11-19T09:43:52;21.88;;;10.93;;
75012;SDS011;63567;49.956;20.130;2023-11-19T09:46:18;24.17;;;12.70;;
75012;SDS011;63567;49.956;20.130;2023-11-19T09:48:44;19.45;;;10.02;;
75012;SDS011;63567;49.956;20.130;2023-11-19T09:51:10;20.13;;;9.95;;
75012;SDS011;63567;49.956;20.130;2023-11-19T09:53:36;21.50;;;10.93;;
75012;SDS011;63567;49.956;20.130;2023-11-19T09:56:02;18.65;;;9.02;;
75012;SDS011;63567;49.956;20.130;2023-11-19T09:58:30;15.10;;;7.63;;
75012;SDS011;63567;49.956;20.130;2023-11-19T10:00:56;14.60;;;7.78;;
75012;SDS011;63567;49.956;20.130;2023-11-19T10:03:32;15.02;;;8.23;;
75012;SDS011;63567;49.956;20.130;2023-11-19T10:06:08;16.15;;;8.10;;
75012;SDS011;63567;49.956;20.130;2023-11-19T10:08:36;13.55;;;7.30;;
75012;SDS011;63567;49.956;20.130;2023-11-19T10:11:04;12.68;;;6.82;;
75012;SDS011;63567;49.956;20.130;2023-11-19T10:13:30;12.90;;;6.90;;
75012;SDS011;63567;49.956;20.130;2023-11-19T10:15:55;12.53;;;6.80;;
75012;SDS011;63567;49.956;20.130;2023-11-19T10:18:25;12.25;;;6.70;;
75012;SDS011;63567;49.956;20.130;2023-11-19T10:20:52;12.18;;;5.85;;
75012;SDS011;63567;49.956;20.130;2023-11-19T10:23:17;10.80;;;5.75;;
75012;SDS011;63567;49.956;20.130;2023-11-19T10:25:42;11.53;;;5.83;;
75012;SDS011;63567;49.956;20.130;2023-11-19T10:28:08;9.43;;;5.60;;
75012;SDS011;63567;49.956;20.130;2023-11-19T10:30:33;9.97;;;5.87;;
75012;SDS011;63567;49.956;20.130;2023-11-19T10:35:28;9.45;;;5.95;;
75012;SDS011;63567;49.956;20.130;2023-11-19T10:37:53;10.27;;;5.37;;
75012;SDS011;63567;49.956;20.130;2023-11-19T10:40:19;8.97;;;4.73;;
75012;SDS011;63567;49.956;20.130;2023-11-19T10:42:45;10.80;;;5.38;;
75012;SDS011;63567;49.956;20.130;2023-11-19T10:45:22;9.23;;;5.55;;
75012;SDS011;63567;49.956;20.130;2023-11-19T10:47:49;9.32;;;4.90;;
75012;SDS011;63567;49.956;20.130;2023-11-19T10:50:17;10.65;;;5.47;;
75012;SDS011;63567;49.956;20.130;2023-11-19T10:52:42;10.30;;;5.40;;
75012;SDS011;63567;49.956;20.130;2023-11-19T10:55:09;10.70;;;5.53;;
75012;SDS011;63567;49.956;20.130;2023-11-19T10:57:36;9.52;;;5.00;;
75012;SDS011;63567;49.956;20.130;2023-11-19T11:00:02;9.90;;;5.13;;
75012;SDS011;63567;49.956;20.130;2023-11-19T11:02:35;8.60;;;5.10;;
75012;SDS011;63567;49.956;20.130;2023-11-19T11:05:07;10.10;;;5.07;;
75012;SDS011;63567;49.956;20.130;2023-11-19T11:07:33;10.98;;;4.97;;
75012;SDS011;63567;49.956;20.130;2023-11-19T11:10:00;9.48;;;5.15;;
75012;SDS011;63567;49.956;20.130;2023-11-19T11:12:26;8.82;;;4.40;;
75012;SDS011;63567;49.956;20.130;2023-11-19T11:14:53;9.70;;;4.60;;
75012;SDS011;63567;49.956;20.130;2023-11-19T11:17:19;9.18;;;4.90;;
75012;SDS011;63567;49.956;20.130;2023-11-19T11:19:49;9.02;;;4.72;;
75012;SDS011;63567;49.956;20.130;2023-11-19T11:22:14;9.70;;;5.03;;
75012;SDS011;63567;49.956;20.130;2023-11-19T11:25:01;10.70;;;5.57;;
75012;SDS011;63567;49.956;20.130;2023-11-19T11:31:06;11.20;;;5.63;;
75012;SDS011;63567;49.956;20.130;2023-11-19T11:36:53;10.02;;;5.60;;
75012;SDS011;63567;49.956;20.130;2023-11-19T11:39:32;10.27;;;5.68;;
75012;SDS011;63567;49.956;20.130;2023-11-19T11:45:00;9.13;;;5.35;;
75012;SDS011;63567;49.956;20.130;2023-11-19T11:47:59;9.45;;;5.40;;
75012;SDS011;63567;49.956;20.130;2023-11-19T11:50:21;11.32;;;6.15;;
75012;SDS011;63567;49.956;20.130;2023-11-19T11:57:58;10.02;;;5.38;;
75012;SDS011;63567;49.956;20.130;2023-11-19T12:00:27;9.57;;;5.32;;
75012;SDS011;63567;49.956;20.130;2023-11-19T12:02:55;8.35;;;4.80;;
75012;SDS011;63567;49.956;20.130;2023-11-19T12:05:21;8.95;;;4.40;;
75012;SDS011;63567;49.956;20.130;2023-11-19T12:07:56;9.73;;;4.70;;
75012;SDS011;63567;49.956;20.130;2023-11-19T12:10:25;7.35;;;4.07;;
75012;SDS011;63567;49.956;20.130;2023-11-19T12:12:56;6.88;;;3.15;;
75012;SDS011;63567;49.956;20.130;2023-11-19T12:15:23;6.22;;;3.50;;
75012;SDS011;63567;49.956;20.130;2023-11-19T12:17:50;7.90;;;4.05;;
75012;SDS011;63567;49.956;20.130;2023-11-19T12:20:17;6.10;;;3.42;;
75012;SDS011;63567;49.956;20.130;2023-11-19T12:22:44;5.72;;;3.00;;
75012;SDS011;63567;49.956;20.130;2023-11-19T12:25:10;5.95;;;3.13;;
75012;SDS011;63567;49.956;20.130;2023-11-19T12:27:40;6.22;;;3.28;;
75012;SDS011;63567;49.956;20.130;2023-11-19T12:30:07;5.72;;;3.10;;
75012;SDS011;63567;49.956;20.130;2023-11-19T12:32:43;5.10;;;2.70;;
75012;SDS011;63567;49.956;20.130;2023-11-19T12:35:10;5.82;;;3.50;;
75012;SDS011;63567;49.956;20.130;2023-11-19T12:37:44;6.15;;;3.28;;
75012;SDS011;63567;49.956;20.130;2023-11-19T12:40:14;7.22;;;3.65;;
75012;SDS011;63567;49.956;20.130;2023-11-19T12:42:52;6.18;;;3.20;;
75012;SDS011;63567;49.956;20.130;2023-11-19T12:45:19;6.40;;;3.47;;
75012;SDS011;63567;49.956;20.130;2023-11-19T12:47:46;6.10;;;3.38;;
75012;SDS011;63567;49.956;20.130;2023-11-19T12:50:13;5.00;;;3.03;;
75012;SDS011;63567;49.956;20.130;2023-11-19T12:52:39;4.07;;;2.60;;
75012;SDS011;63567;49.956;20.130;2023-11-19T12:55:05;5.57;;;2.95;;
75012;SDS011;63567;49.956;20.130;2023-11-19T12:57:49;5.28;;;2.60;;
75012;SDS011;63567;49.956;20.130;2023-11-19T13:00:24;5.53;;;3.20;;
75012;SDS011;63567;49.956;20.130;2023-11-19T13:02:54;5.43;;;2.85;;
75012;SDS011;63567;49.956;20.130;2023-11-19T13:05:22;7.00;;;3.20;;
75012;SDS011;63567;49.956;20.130;2023-11-19T13:08:08;6.68;;;3.03;;
75012;SDS011;63567;49.956;20.130;2023-11-19T13:13:18;7.15;;;3.28;;
75012;SDS011;63567;49.956;20.130;2023-11-19T13:15:44;5.72;;;3.25;;
75012;SDS011;63567;49.956;20.130;2023-11-19T13:18:10;6.28;;;3.42;;
75012;SDS011;63567;49.956;20.130;2023-11-19T13:20:35;6.03;;;3.45;;
75012;SDS011;63567;49.956;20.130;2023-11-19T13:23:02;6.47;;;3.65;;
75012;SDS011;63567;49.956;20.130;2023-11-19T13:25:29;6.88;;;3.10;;
75012;SDS011;63567;49.956;20.130;2023-11-19T13:27:55;6.47;;;3.47;;
75012;SDS011;63567;49.956;20.130;2023-11-19T13:30:21;6.68;;;3.50;;
75012;SDS011;63567;49.956;20.130;2023-11-19T13:32:48;6.43;;;3.60;;
75012;SDS011;63567;49.956;20.130;2023-11-19T13:35:14;8.18;;;4.10;;
75012;SDS011;63567;49.956;20.130;2023-11-19T13:37:40;7.25;;;3.50;;
75012;SDS011;63567;49.956;20.130;2023-11-19T13:40:08;8.90;;;5.38;;
75012;SDS011;63567;49.956;20.130;2023-11-19T13:42:35;10.45;;;5.05;;
75012;SDS011;63567;49.956;20.130;2023-11-19T13:45:05;7.75;;;4.28;;
75012;SDS011;63567;49.956;20.130;2023-11-19T13:47:42;6.97;;;3.38;;
75012;SDS011;63567;49.956;20.130;2023-11-19T13:50:09;5.88;;;3.45;;
75012;SDS011;63567;49.956;20.130;2023-11-19T13:52:45;5.63;;;3.30;;
75012;SDS011;63567;49.956;20.130;2023-11-19T13:55:12;6.63;;;3.78;;
75012;SDS011;63567;49.956;20.130;2023-11-19T13:57:38;8.27;;;4.05;;
75012;SDS011;63567;49.956;20.130;2023-11-19T14:00:04;7.03;;;3.47;;
75012;SDS011;63567;49.956;20.130;2023-11-19T14:02:51;6.63;;;3.72;;
75012;SDS011;63567;49.956;20.130;2023-11-19T14:05:17;6.57;;;3.53;;
75012;SDS011;63567;49.956;20.130;2023-11-19T14:07:43;6.20;;;3.50;;
75012;SDS011;63567;49.956;20.130;2023-11-19T14:10:09;6.47;;;3.60;;
75012;SDS011;63567;49.956;20.130;2023-11-19T14:12:36;6.72;;;3.63;;
75012;SDS011;63567;49.956;20.130;2023-11-19T14:15:02;8.82;;;4.22;;
75012;SDS011;63567;49.956;20.130;2023-11-19T14:17:31;9.32;;;4.68;;
75012;SDS011;63567;49.956;20.130;2023-11-19T14:19:57;8.57;;;4.78;;
75012;SDS011;63567;49.956;20.130;2023-11-19T14:22:22;7.28;;;4.22;;
75012;SDS011;63567;49.956;20.130;2023-11-19T14:24:47;7.53;;;4.18;;
75012;SDS011;63567;49.956;20.130;2023-11-19T14:27:13;7.20;;;4.70;;
75012;SDS011;63567;49.956;20.130;2023-11-19T14:29:38;8.95;;;4.75;;
75012;SDS011;63567;49.956;20.130;2023-11-19T14:32:04;8.45;;;4.80;;
75012;SDS011;63567;49.956;20.130;2023-11-19T14:34:31;8.73;;;4.95;;
75012;SDS011;63567;49.956;20.130;2023-11-19T14:36:57;9.38;;;5.15;;
75012;SDS011;63567;49.956;20.130;2023-11-19T14:39:23;8.40;;;5.03;;
75012;SDS011;63567;49.956;20.130;2023-11-19T14:41:48;7.95;;;4.22;;
75012;SDS011;63567;49.956;20.130;2023-11-19T14:44:14;9.18;;;4.90;;